createdAt,value
2022-12-12T00:04:57.337Z,3.38
2022-12-12T00:10:00.873Z,5.91
2022-12-12T00:15:04.548Z,6.11
2022-12-12T00:20:07.768Z,3.77
2022-12-12T00:25:11.562Z,3.63
2022-12-12T00:30:14.742Z,6.09
2022-12-12T00:35:17.846Z,6.26
2022-12-12T00:40:21.060Z,3.67
2022-12-12T00:45:25.152Z,4.95
2022-12-12T00:50:28.096Z,6.66
2022-12-12T00:55:31.102Z,4.87
2022-12-12T01:00:34.456Z,3.02
2022-12-12T01:05:37.320Z,4.88
2022-12-12T01:10:40.429Z,6.81
2022-12-12T01:15:43.375Z,5.33
2022-12-12T01:20:47.057Z,3.24
2022-12-12T01:25:50.169Z,3.67
2022-12-12T01:30:53.157Z,6.24
2022-12-12T01:35:56.881Z,6.54
2022-12-12T01:41:00.310Z,4.39
2022-12-12T01:46:03.222Z,3.85
2022-12-12T01:51:11.635Z,6.31
2022-12-12T01:56:17.325Z,6.38
2022-12-12T02:01:21.120Z,4.17
2022-12-12T02:06:27.639Z,2.90
2022-12-12T02:11:32.929Z,4.25
2022-12-12T02:16:51.155Z,6.34
2022-12-12T02:21:59.999Z,6.92
2022-12-12T02:27:24.099Z,5.25
2022-12-12T02:32:52.605Z,4.00
2022-12-12T02:38:15.272Z,5.68
2022-12-12T02:43:33.744Z,6.60
2022-12-12T02:49:05.831Z,6.29
2022-12-12T02:54:15.903Z,3.98
2022-12-12T02:59:25.568Z,2.77
2022-12-12T03:05:09.227Z,4.06
2022-12-12T03:10:17.455Z,5.98
2022-12-12T03:15:31.419Z,6.72
2022-12-12T03:20:45.691Z,5.08
2022-12-12T03:26:04.667Z,3.95
2022-12-12T03:31:10.809Z,6.33
2022-12-12T03:36:20.206Z,6.90
2022-12-12T03:41:28.945Z,4.79
2022-12-12T03:46:40.760Z,3.76
2022-12-12T03:51:50.085Z,6.15
2022-12-12T03:57:19.686Z,7.83
2022-12-12T04:02:30.470Z,7.10
2022-12-12T04:07:41.735Z,4.73
2022-12-12T04:13:00.212Z,4.96
2022-12-12T04:18:14.265Z,7.34
2022-12-12T04:23:39.189Z,6.53
2022-12-12T04:28:48.540Z,4.38
2022-12-12T04:33:56.982Z,5.12
2022-12-12T04:39:01.312Z,7.14
2022-12-12T04:44:10.232Z,7.52
2022-12-12T04:49:20.206Z,5.37
2022-12-12T04:55:03.274Z,5.10
2022-12-12T05:00:08.401Z,7.03
2022-12-12T05:05:20.967Z,7.50
2022-12-12T05:10:24.208Z,5.62
2022-12-12T05:15:29.227Z,4.86
2022-12-12T05:20:32.235Z,7.13
2022-12-12T05:25:35.161Z,8.53
2022-12-12T05:30:38.293Z,7.72
2022-12-12T05:35:41.454Z,5.29
2022-12-12T05:40:44.367Z,5.09
2022-12-12T05:45:47.428Z,7.41
2022-12-12T05:50:50.582Z,8.59
2022-12-12T05:55:53.485Z,6.72
2022-12-12T06:01:01.546Z,5.80
2022-12-12T06:06:06.693Z,8.00
2022-12-12T06:11:10.083Z,8.05
2022-12-12T06:16:18.717Z,5.67
2022-12-12T06:21:22.341Z,4.83
2022-12-12T06:26:25.448Z,7.35
2022-12-12T06:31:28.510Z,8.23
2022-12-12T06:36:31.971Z,5.99
2022-12-12T06:41:35.080Z,5.39
2022-12-12T06:46:38.119Z,7.61
2022-12-12T06:51:44.859Z,7.89
2022-12-12T06:56:48.779Z,5.88
2022-12-12T07:01:51.978Z,5.55
2022-12-12T07:06:55.131Z,7.31
2022-12-12T07:11:58.453Z,8.51
2022-12-12T07:17:01.321Z,7.21
2022-12-12T07:22:09.391Z,5.25
2022-12-12T07:27:15.758Z,6.65
2022-12-12T07:32:22.861Z,8.20
2022-12-12T07:37:26.278Z,6.54
2022-12-12T07:42:29.490Z,5.08
2022-12-12T07:47:32.394Z,7.07
2022-12-12T07:52:35.403Z,8.56
2022-12-12T07:57:39.541Z,8.41
2022-12-12T08:02:42.435Z,6.04
2022-12-12T08:07:45.446Z,5.76
2022-12-12T08:12:48.551Z,8.05
2022-12-12T08:17:51.490Z,9.23
2022-12-12T08:22:54.462Z,7.59
2022-12-12T08:27:57.367Z,6.07
2022-12-12T08:33:04.885Z,7.54
2022-12-12T08:38:10.752Z,8.59
2022-12-12T08:43:13.876Z,8.35
2022-12-12T08:48:16.870Z,6.79
2022-12-12T08:53:20.132Z,7.95
2022-12-12T08:58:23.097Z,8.74
2022-12-12T09:03:29.433Z,7.97
2022-12-12T09:08:33.171Z,7.69
2022-12-12T09:13:37.941Z,9.76
2022-12-12T09:18:48.099Z,8.34
2022-12-12T09:23:52.457Z,7.15
2022-12-12T09:28:55.424Z,8.35
2022-12-12T09:33:58.574Z,8.80
2022-12-12T09:39:01.786Z,7.35
2022-12-12T09:44:16.361Z,7.97
2022-12-12T09:49:27.560Z,8.51
2022-12-12T09:54:30.570Z,6.89
2022-12-12T09:59:41.250Z,7.74
2022-12-12T10:05:00.347Z,8.80
2022-12-12T10:10:21.647Z,7.30
2022-12-12T10:15:44.137Z,7.37
2022-12-12T10:20:54.005Z,9.03
2022-12-12T10:26:02.081Z,7.20
2022-12-12T10:31:07.673Z,6.64
2022-12-12T10:36:35.278Z,8.40
2022-12-12T10:41:54.054Z,8.18
2022-12-12T10:47:07.993Z,6.26
2022-12-12T10:52:20.346Z,6.30
2022-12-12T10:57:26.422Z,8.23
2022-12-12T11:02:43.424Z,9.26
2022-12-12T11:07:50.383Z,7.65
2022-12-12T11:13:16.723Z,6.98
2022-12-12T11:18:22.279Z,8.69
2022-12-12T11:23:28.945Z,7.50
2022-12-12T11:28:35.335Z,7.18
2022-12-12T11:33:43.685Z,8.99
2022-12-12T11:38:52.007Z,7.74
2022-12-12T11:44:00.094Z,6.99
2022-12-12T11:49:05.203Z,8.44
2022-12-12T11:54:12.608Z,8.60
2022-12-12T11:59:45.721Z,6.66
2022-12-12T12:05:26.834Z,7.90
2022-12-12T12:10:35.664Z,7.81
2022-12-12T12:15:51.372Z,6.07
2022-12-12T12:21:26.999Z,7.82
2022-12-12T12:27:02.256Z,9.29
2022-12-12T12:32:26.001Z,7.06
2022-12-12T12:38:06.486Z,6.50
2022-12-12T12:43:31.405Z,8.97
2022-12-12T12:48:39.741Z,7.87
2022-12-12T12:54:05.637Z,6.21
2022-12-12T12:59:23.205Z,7.86
2022-12-12T13:04:28.803Z,6.85
2022-12-12T13:09:50.133Z,5.83
2022-12-12T13:14:58.360Z,7.02
2022-12-12T13:20:01.474Z,7.54
2022-12-12T13:25:15.735Z,7.33
2022-12-12T13:30:24.889Z,5.99
2022-12-12T13:35:38.139Z,6.86
2022-12-12T13:40:43.066Z,7.25
2022-12-12T13:45:46.072Z,7.64
2022-12-12T13:51:27.611Z,6.14
2022-12-12T13:56:46.805Z,6.10
2022-12-12T14:01:57.020Z,6.58
2022-12-12T14:07:04.171Z,6.45
2022-12-12T14:12:15.778Z,6.68
2022-12-12T14:17:24.057Z,6.64
2022-12-12T14:22:49.855Z,6.55
2022-12-12T14:27:52.653Z,6.50
2022-12-12T14:33:22.306Z,6.61
2022-12-12T14:38:42.576Z,6.67
2022-12-12T14:44:36.244Z,6.53
2022-12-12T14:49:18.206Z,6.46
2022-12-12T14:54:24.568Z,6.31
2022-12-12T14:59:34.251Z,6.23
2022-12-12T15:04:39.817Z,6.10
2022-12-12T15:09:48.663Z,5.99
2022-12-12T15:14:54.741Z,6.00
2022-12-12T15:20:15.206Z,5.89
2022-12-12T15:25:22.461Z,5.76
2022-12-12T15:30:30.486Z,6.15
2022-12-12T15:35:33.700Z,6.29
2022-12-12T15:40:38.420Z,6.27
2022-12-12T15:45:51.468Z,6.16
2022-12-12T15:50:57.416Z,5.98
2022-12-12T15:56:12.203Z,6.18
2022-12-12T16:01:20.943Z,6.34
2022-12-12T16:06:26.551Z,6.44
2022-12-12T16:11:51.064Z,6.52
2022-12-12T16:17:12.504Z,6.49
2022-12-12T16:22:21.242Z,6.39
2022-12-12T16:27:24.148Z,6.23
2022-12-12T16:32:27.050Z,6.28
2022-12-12T16:37:29.954Z,6.28
2022-12-12T16:42:36.251Z,6.24
2022-12-12T16:47:39.451Z,6.20
2022-12-12T16:52:42.364Z,5.97
2022-12-12T16:57:45.235Z,5.95
2022-12-12T17:02:48.161Z,5.87
2022-12-12T17:07:52.985Z,5.84
2022-12-12T17:12:55.916Z,5.85
2022-12-12T17:17:59.740Z,5.85
2022-12-12T17:28:22.855Z,6.25
2022-12-12T17:33:26.183Z,6.21
2022-12-12T17:38:30.694Z,6.10
2022-12-12T17:43:33.924Z,6.05
2022-12-12T17:48:36.838Z,6.14
2022-12-12T17:53:40.076Z,6.29
2022-12-12T17:58:45.810Z,6.08
2022-12-12T18:03:49.836Z,5.93
2022-12-12T18:08:54.611Z,5.59
2022-12-12T18:14:03.164Z,5.54
2022-12-12T18:19:06.129Z,5.35
2022-12-12T18:24:09.237Z,5.53
2022-12-12T18:29:13.646Z,5.77
2022-12-12T18:34:17.833Z,5.70
2022-12-12T18:39:20.918Z,5.85
2022-12-12T18:44:23.926Z,6.08
2022-12-12T18:49:27.238Z,5.89
2022-12-12T18:54:30.762Z,5.99
2022-12-12T18:59:33.867Z,5.47
2022-12-12T19:04:36.683Z,5.63
2022-12-12T19:09:40.963Z,5.89
2022-12-12T19:15:15.188Z,6.11
2022-12-12T19:20:07.535Z,5.95
2022-12-12T19:25:10.402Z,6.00
2022-12-12T19:30:15.859Z,5.90
2022-12-12T19:35:19.443Z,5.38
2022-12-12T19:40:23.314Z,5.29
2022-12-12T19:45:26.219Z,5.13
2022-12-12T19:50:29.127Z,4.95
2022-12-12T19:55:32.131Z,4.58
2022-12-12T20:00:35.035Z,4.38
2022-12-12T20:05:38.103Z,4.38
2022-12-12T20:10:41.045Z,4.35
2022-12-12T20:15:44.003Z,4.60
2022-12-12T20:20:47.057Z,4.90
2022-12-12T20:25:49.962Z,5.09
2022-12-12T20:31:13.048Z,5.08
2022-12-12T20:36:19.329Z,4.76
2022-12-12T20:41:27.755Z,4.67
2022-12-12T20:46:34.443Z,4.76
2022-12-12T20:57:01.248Z,4.58
2022-12-12T21:02:04.444Z,4.72
2022-12-12T21:07:07.367Z,4.77
2022-12-12T21:12:10.271Z,3.36
2022-12-12T21:17:13.171Z,4.17
2022-12-12T21:22:16.097Z,4.47
2022-12-12T21:27:18.983Z,3.29
2022-12-12T21:32:22.435Z,2.98
2022-12-12T21:37:25.406Z,3.75
2022-12-12T21:42:28.306Z,4.00
2022-12-12T21:47:31.313Z,2.54
2022-12-12T21:52:34.731Z,3.08
2022-12-12T21:57:37.634Z,3.66
2022-12-12T22:02:40.584Z,3.91
2022-12-12T22:07:43.655Z,3.46
2022-12-12T22:12:56.922Z,2.25
2022-12-12T22:18:00.622Z,3.84
2022-12-12T22:23:03.525Z,2.91
2022-12-12T22:28:06.324Z,2.53
2022-12-12T22:33:09.229Z,3.20
2022-12-12T22:38:12.241Z,3.46
2022-12-12T22:43:15.143Z,1.89
2022-12-12T22:48:18.457Z,2.69
2022-12-12T22:53:21.765Z,3.38
2022-12-12T22:58:25.387Z,2.42
2022-12-12T23:03:29.110Z,1.75
2022-12-12T23:08:32.221Z,2.71
2022-12-12T23:13:35.426Z,3.28
2022-12-12T23:18:39.880Z,2.50
2022-12-12T23:23:43.081Z,1.30
2022-12-12T23:28:47.421Z,2.47
2022-12-12T23:33:59.547Z,2.93
2022-12-12T23:39:06.479Z,1.99
2022-12-12T23:44:12.725Z,1.66
2022-12-12T23:49:25.945Z,2.50
2022-12-12T23:54:35.231Z,3.09
2022-12-12T23:59:39.198Z,1.99
